Time;durP1;ratioP1;P1;durP2;ratioP2;P2;SDS_P1;SDS_P2;PMS_P1;PMS_P2;Temp;Humidity;BMP_temperature;BMP_pressure;BME280_temperature;BME280_humidity;BME280_pressure;Samples;Min_cycle;Max_cycle;Signal;HPM_P1;HPM_P2
2023/09/24 00:00:43;;;;;;;1999.90;999.90;;;;;;;;;;5067363;28;20274;-65
2023/09/24 00:03:12;;;;;;;1999.90;999.90;;;;;;;;;;5065520;28;20226;-80
2023/09/24 00:05:41;;;;;;;1999.90;999.90;;;;;;;;;;5067327;28;20234;-75
2023/09/24 00:08:08;;;;;;;1999.90;999.90;;;;;;;;;;5067865;28;20274;-81
2023/09/24 00:10:36;;;;;;;1999.90;999.90;;;;;;;;;;5067430;28;20189;-67
2023/09/24 00:13:03;;;;;;;1999.90;999.90;;;;;;;;;;5068240;28;20223;-66
2023/09/24 00:15:30;;;;;;;1999.90;999.90;;;;;;;;;;5065576;28;20223;-66
2023/09/24 00:17:58;;;;;;;1999.90;999.90;;;;;;;;;;5067154;28;20648;-66
2023/09/24 00:20:27;;;;;;;1999.90;999.90;;;;;;;;;;5066993;28;20201;-62
2023/09/24 00:22:54;;;;;;;1999.90;999.90;;;;;;;;;;5065388;28;20246;-65
2023/09/24 00:25:23;;;;;;;1999.90;999.90;;;;;;;;;;5071299;28;20206;-66
2023/09/24 00:27:50;;;;;;;1999.90;999.90;;;;;;;;;;5070806;28;20201;-64
2023/09/24 00:30:18;;;;;;;1999.90;999.90;;;;;;;;;;5070956;28;20305;-74
2023/09/24 00:32:46;;;;;;;1999.90;999.90;;;;;;;;;;5069657;28;20244;-67
2023/09/24 00:35:13;;;;;;;1999.90;999.90;;;;;;;;;;5070790;28;20197;-61
2023/09/24 00:37:42;;;;;;;1999.90;999.90;;;;;;;;;;5070645;28;20199;-63
2023/09/24 00:40:11;;;;;;;1999.90;999.90;;;;;;;;;;5070291;28;20330;-64
2023/09/24 00:42:39;;;;;;;1999.90;999.90;;;;;;;;;;5069043;28;20199;-65
2023/09/24 00:45:09;;;;;;;1999.90;999.90;;;;;;;;;;5068019;28;20563;-66
2023/09/24 00:47:37;;;;;;;1999.90;999.90;;;;;;;;;;5070982;28;20970;-66
2023/09/24 00:50:05;;;;;;;1999.90;999.90;;;;;;;;;;5070082;28;20210;-69
2023/09/24 00:52:32;;;;;;;1999.90;999.90;;;;;;;;;;5070587;28;20213;-77
2023/09/24 00:55:02;;;;;;;1999.90;999.90;;;;;;;;;;5068664;28;20196;-80
2023/09/24 00:57:32;;;;;;;1999.90;999.90;;;;;;;;;;5070272;28;20185;-66
2023/09/24 01:00:00;;;;;;;1999.90;999.90;;;;;;;;;;5070258;28;20275;-67
2023/09/24 01:02:31;;;;;;;1999.90;999.90;;;;;;;;;;5070276;28;20196;-73
2023/09/24 01:05:01;;;;;;;1999.90;999.90;;;;;;;;;;5070509;28;20528;-66
2023/09/24 01:07:30;;;;;;;1999.90;999.90;;;;;;;;;;5070229;28;20230;-67
2023/09/24 01:09:57;;;;;;;1999.90;999.90;;;;;;;;;;5070295;28;20252;-62
2023/09/24 01:12:29;;;;;;;1999.90;999.90;;;;;;;;;;5070346;28;20229;-68
2023/09/24 01:14:57;;;;;;;1999.90;999.90;;;;;;;;;;5070408;28;20192;-62
2023/09/24 01:17:25;;;;;;;1999.90;999.90;;;;;;;;;;5070486;28;20209;-64
2023/09/24 01:19:53;;;;;;;1999.90;999.90;;;;;;;;;;5069914;28;20195;-67
2023/09/24 01:22:23;;;;;;;1999.90;999.90;;;;;;;;;;5070139;28;20274;-67
2023/09/24 01:24:50;;;;;;;1999.90;999.90;;;;;;;;;;5069788;28;20563;-65
2023/09/24 01:27:17;;;;;;;1999.90;999.90;;;;;;;;;;5069869;28;20654;-65
2023/09/24 01:29:44;;;;;;;1999.90;999.90;;;;;;;;;;5070275;28;20197;-71
2023/09/24 01:32:12;;;;;;;1999.90;999.90;;;;;;;;;;5068187;28;20198;-76
2023/09/24 01:34:39;;;;;;;1999.90;999.90;;;;;;;;;;5069228;28;20199;-74
2023/09/24 01:37:09;;;;;;;1999.90;999.90;;;;;;;;;;5069430;28;20194;-64
2023/09/24 01:39:37;;;;;;;1999.90;999.90;;;;;;;;;;5070421;28;20649;-65
2023/09/24 01:42:07;;;;;;;1999.90;999.90;;;;;;;;;;5069156;28;20196;-67
2023/09/24 01:44:34;;;;;;;1999.90;999.90;;;;;;;;;;5070312;28;20526;-73
2023/09/24 01:47:03;;;;;;;1999.90;999.90;;;;;;;;;;5070195;28;20238;-69
2023/09/24 01:49:31;;;;;;;1999.90;999.90;;;;;;;;;;5069628;28;20216;-71
2023/09/24 01:51:58;;;;;;;1999.90;999.90;;;;;;;;;;5069936;28;20282;-71
2023/09/24 01:54:26;;;;;;;1999.90;999.90;;;;;;;;;;5068768;28;20199;-73
2023/09/24 01:56:55;;;;;;;1999.90;999.90;;;;;;;;;;5070105;28;20662;-65
2023/09/24 01:59:23;;;;;;;1999.90;999.90;;;;;;;;;;5068886;28;20192;-71
2023/09/24 02:01:52;;;;;;;1999.90;999.90;;;;;;;;;;5068726;28;20262;-62
2023/09/24 02:04:19;;;;;;;1999.90;999.90;;;;;;;;;;5069040;28;20199;-66
2023/09/24 02:06:47;;;;;;;1999.90;999.90;;;;;;;;;;5069619;28;20267;-69
2023/09/24 02:09:16;;;;;;;1999.90;999.90;;;;;;;;;;5069337;28;20192;-82
2023/09/24 02:11:43;;;;;;;1999.90;999.90;;;;;;;;;;5067861;28;20555;-68
2023/09/24 02:14:12;;;;;;;1999.90;999.90;;;;;;;;;;5069393;28;20220;-70
2023/09/24 02:16:42;;;;;;;1999.90;999.90;;;;;;;;;;5068749;28;20237;-70
2023/09/24 02:19:10;;;;;;;1999.90;999.90;;;;;;;;;;5049328;28;20204;-69
2023/09/24 02:21:40;;;;;;;1999.90;999.90;;;;;;;;;;5049203;28;20203;-67
2023/09/24 02:24:10;;;;;;;1999.90;999.90;;;;;;;;;;5049496;28;20190;-66
2023/09/24 02:26:37;;;;;;;1999.90;999.90;;;;;;;;;;5047664;28;20217;-67
2023/09/24 02:29:05;;;;;;;1999.90;999.90;;;;;;;;;;5048946;28;20200;-65
2023/09/24 02:31:33;;;;;;;1999.90;999.90;;;;;;;;;;5049341;28;20220;-64
2023/09/24 02:34:01;;;;;;;1999.90;999.90;;;;;;;;;;5050588;28;20213;-70
2023/09/24 02:36:28;;;;;;;1999.90;999.90;;;;;;;;;;5069192;28;20210;-64
2023/09/24 02:38:56;;;;;;;1999.90;999.90;;;;;;;;;;5069051;28;20199;-62
2023/09/24 02:41:23;;;;;;;1999.90;999.90;;;;;;;;;;5068101;28;20367;-70
2023/09/24 02:43:50;;;;;;;1999.90;999.90;;;;;;;;;;5068263;28;20513;-78
2023/09/24 02:46:18;;;;;;;1999.90;999.90;;;;;;;;;;5066240;28;20237;-75
2023/09/24 02:48:46;;;;;;;1999.90;999.90;;;;;;;;;;5068916;28;20199;-65
2023/09/24 02:51:14;;;;;;;1999.90;999.90;;;;;;;;;;5067694;28;20199;-70
2023/09/24 02:53:42;;;;;;;1999.90;999.90;;;;;;;;;;5068899;28;20226;-73
2023/09/24 02:56:09;;;;;;;1999.90;999.90;;;;;;;;;;5068372;28;20195;-67
2023/09/24 02:58:36;;;;;;;1999.90;999.90;;;;;;;;;;5068068;28;20202;-80
2023/09/24 03:01:05;;;;;;;1999.90;999.90;;;;;;;;;;5068026;28;20188;-61
2023/09/24 03:03:32;;;;;;;1999.90;999.90;;;;;;;;;;5065965;28;21028;-62
2023/09/24 03:06:01;;;;;;;1999.90;999.90;;;;;;;;;;5066614;28;20281;-63
2023/09/24 03:08:28;;;;;;;1999.90;999.90;;;;;;;;;;5066831;28;20191;-62
2023/09/24 03:10:55;;;;;;;1999.90;999.90;;;;;;;;;;5068114;28;20564;-65
2023/09/24 03:13:23;;;;;;;1999.90;999.90;;;;;;;;;;5066733;28;20231;-73
2023/09/24 03:15:50;;;;;;;1999.90;999.90;;;;;;;;;;5063998;28;20650;-65
2023/09/24 03:18:17;;;;;;;1999.90;999.90;;;;;;;;;;5067012;28;20206;-74
2023/09/24 03:20:45;;;;;;;1999.90;999.90;;;;;;;;;;5066643;28;20194;-68
2023/09/24 03:23:14;;;;;;;1999.90;999.90;;;;;;;;;;5067944;28;20248;-76
2023/09/24 03:25:41;;;;;;;1999.90;999.90;;;;;;;;;;5067227;28;20199;-81
2023/09/24 03:28:08;;;;;;;1999.90;999.90;;;;;;;;;;5068527;28;20223;-75
2023/09/24 03:30:35;;;;;;;1999.90;999.90;;;;;;;;;;5065293;28;20200;-66
2023/09/24 03:33:03;;;;;;;1999.90;999.90;;;;;;;;;;5066382;28;20215;-78
2023/09/24 03:35:31;;;;;;;1999.90;999.90;;;;;;;;;;5067466;28;20191;-73
2023/09/24 03:37:59;;;;;;;1999.90;999.90;;;;;;;;;;5067510;28;20700;-72
2023/09/24 03:40:28;;;;;;;1999.90;999.90;;;;;;;;;;5067522;28;20242;-65
2023/09/24 03:42:56;;;;;;;1999.90;999.90;;;;;;;;;;5052915;28;20196;-66
2023/09/24 03:45:24;;;;;;;1999.90;999.90;;;;;;;;;;5063956;28;20203;-68
2023/09/24 03:47:51;;;;;;;1999.90;999.90;;;;;;;;;;5067373;28;20225;-66
2023/09/24 03:50:19;;;;;;;1999.90;999.90;;;;;;;;;;5067857;28;20203;-64
2023/09/24 03:52:47;;;;;;;1999.90;999.90;;;;;;;;;;5067306;28;20660;-64
2023/09/24 03:55:15;;;;;;;1999.90;999.90;;;;;;;;;;5067117;28;20192;-71
2023/09/24 03:57:44;;;;;;;1999.90;999.90;;;;;;;;;;5065667;28;20615;-63
2023/09/24 04:00:15;;;;;;;1999.90;999.90;;;;;;;;;;5067381;28;20195;-69
2023/09/24 04:02:46;;;;;;;1999.90;999.90;;;;;;;;;;5068057;28;20214;-78
2023/09/24 04:05:17;;;;;;;1999.90;999.90;;;;;;;;;;5065872;28;20210;-70
2023/09/24 04:07:46;;;;;;;1999.90;999.90;;;;;;;;;;5065786;28;20290;-69
2023/09/24 04:10:14;;;;;;;1999.90;999.90;;;;;;;;;;5067865;28;20230;-63
2023/09/24 04:12:41;;;;;;;1999.90;999.90;;;;;;;;;;5067483;28;20280;-67
2023/09/24 04:15:11;;;;;;;1999.90;999.90;;;;;;;;;;5068014;28;20260;-68
2023/09/24 04:17:39;;;;;;;1999.90;999.90;;;;;;;;;;5066566;28;20191;-73
2023/09/24 04:20:07;;;;;;;1999.90;999.90;;;;;;;;;;5067510;28;20271;-70
2023/09/24 04:22:35;;;;;;;1999.90;999.90;;;;;;;;;;5065137;28;20244;-67
2023/09/24 04:25:02;;;;;;;1999.90;999.90;;;;;;;;;;5067519;28;20201;-68
2023/09/24 04:27:29;;;;;;;1999.90;999.90;;;;;;;;;;5066557;28;20191;-65
2023/09/24 04:29:56;;;;;;;1999.90;999.90;;;;;;;;;;5067224;28;20214;-79
2023/09/24 04:32:25;;;;;;;1999.90;999.90;;;;;;;;;;5067198;28;20834;-63
2023/09/24 04:34:55;;;;;;;1999.90;999.90;;;;;;;;;;5066448;28;20602;-71
2023/09/24 04:37:22;;;;;;;1999.90;999.90;;;;;;;;;;5067382;28;20195;-65
2023/09/24 04:39:49;;;;;;;1999.90;999.90;;;;;;;;;;5066695;28;20199;-71
2023/09/24 04:42:16;;;;;;;1999.90;999.90;;;;;;;;;;5065730;28;20191;-65
2023/09/24 04:44:44;;;;;;;1999.90;999.90;;;;;;;;;;5066662;28;20662;-66
2023/09/24 04:47:11;;;;;;;1999.90;999.90;;;;;;;;;;5066711;28;20729;-62
2023/09/24 04:49:40;;;;;;;1999.90;999.90;;;;;;;;;;5066960;28;20202;-67
2023/09/24 04:52:07;;;;;;;1999.90;999.90;;;;;;;;;;5066766;28;20191;-69
2023/09/24 04:54:34;;;;;;;1999.90;999.90;;;;;;;;;;5066994;28;20211;-76
2023/09/24 04:57:01;;;;;;;1999.90;999.90;;;;;;;;;;5066905;28;20192;-69
2023/09/24 04:59:29;;;;;;;1999.90;999.90;;;;;;;;;;5066256;28;20219;-73
2023/09/24 05:01:56;;;;;;;1999.90;999.90;;;;;;;;;;5065546;28;20684;-76
2023/09/24 05:04:23;;;;;;;1999.90;999.90;;;;;;;;;;5066874;28;20546;-70
2023/09/24 05:06:54;;;;;;;1999.90;999.90;;;;;;;;;;5065400;28;20205;-69
2023/09/24 05:09:23;;;;;;;1999.90;999.90;;;;;;;;;;5066910;28;20187;-75
2023/09/24 05:11:50;;;;;;;1999.90;999.90;;;;;;;;;;5069639;28;20191;-72
2023/09/24 05:14:18;;;;;;;1999.90;999.90;;;;;;;;;;5068561;28;20227;-74
2023/09/24 05:16:45;;;;;;;1999.90;999.90;;;;;;;;;;5070371;28;20654;-71
2023/09/24 05:19:13;;;;;;;1999.90;999.90;;;;;;;;;;5052157;28;20250;-66
2023/09/24 05:21:40;;;;;;;1999.90;999.90;;;;;;;;;;5069499;28;20195;-67
2023/09/24 05:24:09;;;;;;;1999.90;999.90;;;;;;;;;;5070512;28;20728;-78
2023/09/24 05:26:37;;;;;;;1999.90;999.90;;;;;;;;;;5070073;28;20244;-65
2023/09/24 05:38:04;;;;;;;1999.90;999.90;;;;;;;;;;4963122;28;20583;-73
2023/09/24 05:40:32;;;;;;;1999.90;999.90;;;;;;;;;;4973267;28;20198;-80
2023/09/24 05:43:00;;;;;;;1999.90;999.90;;;;;;;;;;4972360;28;20199;-71
2023/09/24 05:45:27;;;;;;;1999.90;999.90;;;;;;;;;;4972723;28;20206;-65
2023/09/24 05:47:54;;;;;;;1999.90;999.90;;;;;;;;;;4971915;28;20194;-75
2023/09/24 05:50:22;;;;;;;1999.90;999.90;;;;;;;;;;4964996;28;20215;-63
2023/09/24 05:52:49;;;;;;;1999.90;999.90;;;;;;;;;;4969460;28;20565;-79
2023/09/24 05:55:16;;;;;;;1999.90;999.90;;;;;;;;;;4971791;28;20210;-67
2023/09/24 05:57:45;;;;;;;1999.90;999.90;;;;;;;;;;4973480;28;20206;-72
2023/09/24 06:00:13;;;;;;;1999.90;999.90;;;;;;;;;;4971558;28;20292;-78
2023/09/24 06:02:40;;;;;;;1999.90;999.90;;;;;;;;;;4972939;28;20548;-67
2023/09/24 06:05:09;;;;;;;1999.90;999.90;;;;;;;;;;4970177;28;20198;-80
2023/09/24 06:07:36;;;;;;;1999.90;999.90;;;;;;;;;;4972629;28;20222;-63
2023/09/24 06:10:05;;;;;;;1999.90;999.90;;;;;;;;;;4971443;28;20681;-64
2023/09/24 06:12:32;;;;;;;1999.90;999.90;;;;;;;;;;4968965;28;20460;-65
2023/09/24 06:15:03;;;;;;;1999.90;999.90;;;;;;;;;;4972012;28;20235;-65
2023/09/24 06:17:31;;;;;;;1999.90;999.90;;;;;;;;;;4970320;28;20691;-64
2023/09/24 06:19:58;;;;;;;1999.90;999.90;;;;;;;;;;4971773;28;20241;-67
2023/09/24 06:22:25;;;;;;;1999.90;999.90;;;;;;;;;;4969646;28;20191;-64
2023/09/24 06:24:54;;;;;;;1999.90;999.90;;;;;;;;;;4972687;28;20206;-76
2023/09/24 06:27:22;;;;;;;1999.90;999.90;;;;;;;;;;4970963;28;20688;-77
2023/09/24 06:29:49;;;;;;;1999.90;999.90;;;;;;;;;;4972245;28;20245;-71
2023/09/24 06:32:18;;;;;;;1999.90;999.90;;;;;;;;;;4971810;28;20307;-67
2023/09/24 06:34:45;;;;;;;1999.90;999.90;;;;;;;;;;4971313;28;20250;-71
2023/09/24 06:37:13;;;;;;;1999.90;999.90;;;;;;;;;;4985433;28;20230;-72
2023/09/24 06:39:41;;;;;;;1999.90;999.90;;;;;;;;;;4990236;28;20202;-67
2023/09/24 06:42:09;;;;;;;1999.90;999.90;;;;;;;;;;4991335;28;20275;-62
2023/09/24 06:44:36;;;;;;;1999.90;999.90;;;;;;;;;;4989418;28;20216;-68
2023/09/24 06:47:04;;;;;;;1999.90;999.90;;;;;;;;;;4990617;28;20198;-66
2023/09/24 06:49:32;;;;;;;1999.90;999.90;;;;;;;;;;4989908;28;20195;-75
2023/09/24 06:51:59;;;;;;;1999.90;999.90;;;;;;;;;;4972756;28;20225;-66
2023/09/24 06:54:27;;;;;;;1999.90;999.90;;;;;;;;;;4990055;28;20221;-77
2023/09/24 06:56:54;;;;;;;1999.90;999.90;;;;;;;;;;4989960;28;20203;-71
2023/09/24 06:59:21;;;;;;;1999.90;999.90;;;;;;;;;;4990675;28;20191;-72
2023/09/24 07:01:49;;;;;;;1999.90;999.90;;;;;;;;;;4990145;28;20269;-71
2023/09/24 07:04:17;;;;;;;1999.90;999.90;;;;;;;;;;4972856;28;20199;-65
2023/09/24 07:06:46;;;;;;;1999.90;999.90;;;;;;;;;;4990866;28;20203;-82
2023/09/24 07:09:13;;;;;;;1999.90;999.90;;;;;;;;;;4972905;28;20192;-72
2023/09/24 07:11:41;;;;;;;1999.90;999.90;;;;;;;;;;4990693;28;20201;-79
2023/09/24 07:14:08;;;;;;;1999.90;999.90;;;;;;;;;;4989891;28;20228;-68
2023/09/24 07:16:36;;;;;;;1999.90;999.90;;;;;;;;;;5001173;28;20208;-80
2023/09/24 07:19:04;;;;;;;1999.90;999.90;;;;;;;;;;5009744;28;20196;-69
2023/09/24 07:21:33;;;;;;;1999.90;999.90;;;;;;;;;;5009979;28;20259;-71
2023/09/24 07:24:02;;;;;;;1999.90;999.90;;;;;;;;;;5010295;28;20232;-76
2023/09/24 07:26:30;;;;;;;1999.90;999.90;;;;;;;;;;5000607;28;20198;-71
2023/09/24 07:28:57;;;;;;;1999.90;999.90;;;;;;;;;;4990833;28;20208;-66
2023/09/24 07:31:26;;;;;;;1999.90;999.90;;;;;;;;;;4971526;28;20216;-67
2023/09/24 07:33:54;;;;;;;1999.90;999.90;;;;;;;;;;4971785;28;20625;-74
2023/09/24 07:36:22;;;;;;;1999.90;999.90;;;;;;;;;;4988610;28;20242;-71
2023/09/24 07:38:51;;;;;;;1999.90;999.90;;;;;;;;;;4989442;28;20288;-67
2023/09/24 07:41:21;;;;;;;1999.90;999.90;;;;;;;;;;4989082;28;20549;-74
2023/09/24 07:43:48;;;;;;;1999.90;999.90;;;;;;;;;;4988129;28;20205;-69
2023/09/24 07:46:16;;;;;;;1999.90;999.90;;;;;;;;;;4989188;28;20194;-71
2023/09/24 07:48:44;;;;;;;1999.90;999.90;;;;;;;;;;4988431;28;20211;-73
2023/09/24 07:51:11;;;;;;;1999.90;999.90;;;;;;;;;;4989535;28;20211;-69
2023/09/24 07:53:38;;;;;;;1999.90;999.90;;;;;;;;;;4987694;28;20885;-74
2023/09/24 07:56:08;;;;;;;1999.90;999.90;;;;;;;;;;4989099;28;20210;-70
2023/09/24 07:58:38;;;;;;;1999.90;999.90;;;;;;;;;;4988589;28;20194;-72
2023/09/24 08:01:06;;;;;;;1999.90;999.90;;;;;;;;;;4987959;28;20216;-67
2023/09/24 08:03:33;;;;;;;1999.90;999.90;;;;;;;;;;4988803;28;20203;-72
2023/09/24 08:06:01;;;;;;;1999.90;999.90;;;;;;;;;;4988198;28;20661;-73
2023/09/24 08:08:28;;;;;;;1999.90;999.90;;;;;;;;;;4988848;28;20215;-73
2023/09/24 08:10:56;;;;;;;1999.90;999.90;;;;;;;;;;4988395;28;20201;-81
2023/09/24 08:13:24;;;;;;;1999.90;999.90;;;;;;;;;;4988885;28;20236;-68
2023/09/24 08:15:56;;;;;;;1999.90;999.90;;;;;;;;;;4971343;28;20225;-71
2023/09/24 08:18:23;;;;;;;1999.90;999.90;;;;;;;;;;4987751;28;20664;-69
2023/09/24 08:20:53;;;;;;;1999.90;999.90;;;;;;;;;;4971727;28;20292;-71
2023/09/24 08:23:21;;;;;;;1999.90;999.90;;;;;;;;;;4987650;28;20205;-66
2023/09/24 08:25:49;;;;;;;1999.90;999.90;;;;;;;;;;4988393;28;20238;-72
2023/09/24 08:28:17;;;;;;;1999.90;999.90;;;;;;;;;;4987600;28;20204;-67
2023/09/24 08:30:44;;;;;;;1999.90;999.90;;;;;;;;;;4988667;28;20200;-77
2023/09/24 08:33:13;;;;;;;1999.90;999.90;;;;;;;;;;4987372;28;20198;-69
2023/09/24 08:35:40;;;;;;;1999.90;999.90;;;;;;;;;;4985980;28;20237;-65
2023/09/24 08:38:09;;;;;;;1999.90;999.90;;;;;;;;;;4994207;28;20279;-66
2023/09/24 08:40:36;;;;;;;1999.90;999.90;;;;;;;;;;5005589;28;20638;-72
2023/09/24 08:43:06;;;;;;;1999.90;999.90;;;;;;;;;;5007378;28;20197;-69
2023/09/24 08:45:34;;;;;;;1999.90;999.90;;;;;;;;;;5008345;28;20188;-71
2023/09/24 08:48:07;;;;;;;1999.90;999.90;;;;;;;;;;5010642;28;20265;-64
2023/09/24 08:50:38;;;;;;;1999.90;999.90;;;;;;;;;;5010643;28;20192;-70
2023/09/24 08:53:06;;;;;;;1999.90;999.90;;;;;;;;;;5009555;28;20569;-67
2023/09/24 08:55:33;;;;;;;1999.90;999.90;;;;;;;;;;5009933;28;20280;-68
2023/09/24 08:58:00;;;;;;;1999.90;999.90;;;;;;;;;;5009407;28;20238;-67
2023/09/24 09:00:28;;;;;;;1999.90;999.90;;;;;;;;;;5010744;28;20196;-64
2023/09/24 09:02:55;;;;;;;1999.90;999.90;;;;;;;;;;5008213;28;20199;-72
2023/09/24 09:05:24;;;;;;;1999.90;999.90;;;;;;;;;;4990749;28;20267;-71
2023/09/24 09:07:58;;;;;;;1999.90;999.90;;;;;;;;;;4990129;28;20193;-70
2023/09/24 09:10:27;;;;;;;1999.90;999.90;;;;;;;;;;4989159;28;20777;-64
2023/09/24 09:13:05;;;;;;;1999.90;999.90;;;;;;;;;;4990480;28;20194;-69
2023/09/24 09:15:32;;;;;;;1999.90;999.90;;;;;;;;;;4972116;28;20598;-62
2023/09/24 09:18:00;;;;;;;1999.90;999.90;;;;;;;;;;4987845;28;20205;-62
2023/09/24 09:20:40;;;;;;;1999.90;999.90;;;;;;;;;;4989199;28;20252;-64
2023/09/24 09:23:12;;;;;;;1999.90;999.90;;;;;;;;;;4991263;28;20232;-65
2023/09/24 09:25:50;;;;;;;1999.90;999.90;;;;;;;;;;5010506;28;20247;-65
2023/09/24 09:28:23;;;;;;;1999.90;999.90;;;;;;;;;;5009223;28;20197;-70
2023/09/24 09:31:01;;;;;;;1999.90;999.90;;;;;;;;;;5009817;28;20181;-64
2023/09/24 09:33:29;;;;;;;1999.90;999.90;;;;;;;;;;5009615;28;20528;-75
2023/09/24 09:35:57;;;;;;;1999.90;999.90;;;;;;;;;;4991617;28;20222;-70
2023/09/24 09:38:26;;;;;;;1999.90;999.90;;;;;;;;;;4990534;28;20245;-68
2023/09/24 09:40:55;;;;;;;1999.90;999.90;;;;;;;;;;4971252;28;20594;-74
2023/09/24 09:43:27;;;;;;;1999.90;999.90;;;;;;;;;;4990481;28;20202;-69
2023/09/24 09:45:55;;;;;;;1999.90;999.90;;;;;;;;;;4970804;28;20649;-67
2023/09/24 09:48:28;;;;;;;1999.90;999.90;;;;;;;;;;4990187;28;20202;-71
2023/09/24 09:50:59;;;;;;;1999.90;999.90;;;;;;;;;;5009120;28;20185;-71
2023/09/24 09:53:31;;;;;;;1999.90;999.90;;;;;;;;;;5008904;28;20686;-69
2023/09/24 09:55:58;;;;;;;1999.90;999.90;;;;;;;;;;5008123;28;20239;-69
2023/09/24 09:58:26;;;;;;;1999.90;999.90;;;;;;;;;;4990509;28;20197;-71
2023/09/24 10:00:54;;;;;;;1999.90;999.90;;;;;;;;;;5009267;28;20664;-67
2023/09/24 10:03:21;;;;;;;1999.90;999.90;;;;;;;;;;4990180;28;20251;-68
2023/09/24 10:05:50;;;;;;;1999.90;999.90;;;;;;;;;;5008593;28;20204;-70
2023/09/24 10:08:36;;;;;;;1999.90;999.90;;;;;;;;;;5008464;28;20228;-67
2023/09/24 10:11:04;;;;;;;1999.90;999.90;;;;;;;;;;5003531;28;20209;-67
2023/09/24 10:13:48;;;;;;;1999.90;999.90;;;;;;;;;;4989718;28;20695;-74
2023/09/24 10:16:31;;;;;;;1999.90;999.90;;;;;;;;;;4988470;28;20220;-70
2023/09/24 10:18:59;;;;;;;1999.90;999.90;;;;;;;;;;4989339;28;20202;-68
2023/09/24 10:21:31;;;;;;;1999.90;999.90;;;;;;;;;;4988182;28;20193;-74
2023/09/24 10:24:00;;;;;;;1999.90;999.90;;;;;;;;;;4987861;28;20197;-65
2023/09/24 10:26:48;;;;;;;1999.90;999.90;;;;;;;;;;4989598;28;20198;-68
2023/09/24 10:29:17;;;;;;;1999.90;999.90;;;;;;;;;;4986269;28;20893;-68
2023/09/24 10:32:03;;;;;;;1999.90;999.90;;;;;;;;;;4989152;28;20202;-70
2023/09/24 10:34:58;;;;;;;1999.90;999.90;;;;;;;;;;4971883;28;20687;-68
2023/09/24 10:37:26;;;;;;;1999.90;999.90;;;;;;;;;;4977681;28;20260;-68
2023/09/24 10:40:05;;;;;;;1999.90;999.90;;;;;;;;;;4988912;28;20720;-70
2023/09/24 10:42:33;;;;;;;1999.90;999.90;;;;;;;;;;4986680;28;20205;-71
2023/09/24 10:45:15;;;;;;;1999.90;999.90;;;;;;;;;;5004777;28;20219;-70
2023/09/24 10:47:45;;;;;;;1999.90;999.90;;;;;;;;;;5007779;28;20231;-69
2023/09/24 10:50:13;;;;;;;1999.90;999.90;;;;;;;;;;5008136;28;20199;-74
2023/09/24 10:52:47;;;;;;;1999.90;999.90;;;;;;;;;;4991330;28;20584;-69
2023/09/24 10:55:16;;;;;;;1999.90;999.90;;;;;;;;;;5007033;28;20216;-70
2023/09/24 10:57:46;;;;;;;1999.90;999.90;;;;;;;;;;5008666;28;20208;-75
2023/09/24 11:00:17;;;;;;;1999.90;999.90;;;;;;;;;;5007711;28;20564;-71
2023/09/24 11:02:45;;;;;;;1999.90;999.90;;;;;;;;;;5007894;28;20220;-67
2023/09/24 11:05:12;;;;;;;1999.90;999.90;;;;;;;;;;5008145;28;20262;-68
2023/09/24 11:07:40;;;;;;;1999.90;999.90;;;;;;;;;;5006763;28;20201;-73
2023/09/24 11:10:07;;;;;;;1999.90;999.90;;;;;;;;;;5008384;28;20205;-72
2023/09/24 11:12:36;;;;;;;1999.90;999.90;;;;;;;;;;4991053;28;20197;-73
2023/09/24 11:15:03;;;;;;;1999.90;999.90;;;;;;;;;;4989305;28;20227;-68
2023/09/24 11:17:31;;;;;;;1999.90;999.90;;;;;;;;;;4986335;28;20684;-72
2023/09/24 11:19:59;;;;;;;1999.90;999.90;;;;;;;;;;4988182;28;20194;-71
2023/09/24 11:22:27;;;;;;;1999.90;999.90;;;;;;;;;;4988907;28;20545;-68
2023/09/24 11:25:06;;;;;;;1999.90;999.90;;;;;;;;;;5006717;28;20197;-71
2023/09/24 11:27:33;;;;;;;1999.90;999.90;;;;;;;;;;5008182;28;20193;-73
2023/09/24 11:30:03;;;;;;;1999.90;999.90;;;;;;;;;;4988544;28;20213;-68
2023/09/24 11:32:30;;;;;;;1999.90;999.90;;;;;;;;;;4988731;28;20201;-70
2023/09/24 11:35:11;;;;;;;1999.90;999.90;;;;;;;;;;4997029;28;20197;-74
2023/09/24 11:37:46;;;;;;;1999.90;999.90;;;;;;;;;;4991870;28;20328;-75
2023/09/24 11:40:21;;;;;;;1999.90;999.90;;;;;;;;;;4987804;28;20197;-74
2023/09/24 11:42:50;;;;;;;1999.90;999.90;;;;;;;;;;4960277;28;20198;-76
2023/09/24 11:45:32;;;;;;;1999.90;999.90;;;;;;;;;;4957589;28;20260;-68
2023/09/24 11:47:59;;;;;;;1999.90;999.90;;;;;;;;;;4985289;28;20190;-74
2023/09/24 11:50:27;;;;;;;1999.90;999.90;;;;;;;;;;4987797;28;20194;-67
2023/09/24 11:52:54;;;;;;;1999.90;999.90;;;;;;;;;;4987548;28;20198;-68
2023/09/24 11:55:21;;;;;;;1999.90;999.90;;;;;;;;;;4956704;28;20203;-67
2023/09/24 11:57:49;;;;;;;1999.90;999.90;;;;;;;;;;4938579;28;20732;-66
2023/09/24 12:00:16;;;;;;;1999.90;999.90;;;;;;;;;;4961788;28;20199;-66
2023/09/24 12:02:45;;;;;;;1999.90;999.90;;;;;;;;;;4963559;28;20309;-67
2023/09/24 12:05:12;;;;;;;1999.90;999.90;;;;;;;;;;4965297;28;20205;-67
2023/09/24 12:07:40;;;;;;;1999.90;999.90;;;;;;;;;;4966909;28;20214;-67
2023/09/24 12:10:07;;;;;;;1999.90;999.90;;;;;;;;;;4967227;28;20673;-67
2023/09/24 12:12:35;;;;;;;1999.90;999.90;;;;;;;;;;4950650;28;20205;-73
2023/09/24 12:15:02;;;;;;;1999.90;999.90;;;;;;;;;;4966696;28;20198;-65
2023/09/24 12:17:29;;;;;;;1999.90;999.90;;;;;;;;;;4965731;28;20688;-68
2023/09/24 12:19:58;;;;;;;1999.90;999.90;;;;;;;;;;4968722;28;20198;-67
2023/09/24 12:22:26;;;;;;;1999.90;999.90;;;;;;;;;;4970495;28;20669;-72
2023/09/24 12:24:54;;;;;;;1999.90;999.90;;;;;;;;;;4971322;28;20552;-66
2023/09/24 12:27:21;;;;;;;1999.90;999.90;;;;;;;;;;4976545;28;20271;-67
2023/09/24 12:29:48;;;;;;;1999.90;999.90;;;;;;;;;;4971736;28;20194;-68
2023/09/24 12:32:15;;;;;;;1999.90;999.90;;;;;;;;;;4971195;28;20199;-66
2023/09/24 12:34:43;;;;;;;1999.90;999.90;;;;;;;;;;4962714;28;20306;-68
2023/09/24 12:37:11;;;;;;;1999.90;999.90;;;;;;;;;;4953737;28;20249;-72
2023/09/24 12:39:39;;;;;;;1999.90;999.90;;;;;;;;;;4970324;28;20278;-68
2023/09/24 12:42:06;;;;;;;1999.90;999.90;;;;;;;;;;4970722;28;20194;-75
2023/09/24 12:44:33;;;;;;;1999.90;999.90;;;;;;;;;;4971319;28;20216;-67
2023/09/24 12:47:01;;;;;;;1999.90;999.90;;;;;;;;;;4968970;28;20190;-67
2023/09/24 12:49:28;;;;;;;1999.90;999.90;;;;;;;;;;4970423;28;20199;-65
2023/09/24 12:51:55;;;;;;;1999.90;999.90;;;;;;;;;;4968873;28;20198;-69
2023/09/24 12:54:24;;;;;;;1999.90;999.90;;;;;;;;;;4969979;28;20214;-66
2023/09/24 12:56:51;;;;;;;1999.90;999.90;;;;;;;;;;4968982;28;20223;-70
2023/09/24 12:59:19;;;;;;;1999.90;999.90;;;;;;;;;;4986158;28;21121;-64
2023/09/24 13:01:46;;;;;;;1999.90;999.90;;;;;;;;;;4987396;28;20293;-69
2023/09/24 13:04:13;;;;;;;1999.90;999.90;;;;;;;;;;4987871;28;20200;-65
2023/09/24 13:06:44;;;;;;;1999.90;999.90;;;;;;;;;;4988932;28;20205;-64
2023/09/24 13:09:16;;;;;;;1999.90;999.90;;;;;;;;;;4987376;28;20190;-71
2023/09/24 13:11:45;;;;;;;1999.90;999.90;;;;;;;;;;4989095;28;20541;-63
2023/09/24 13:14:13;;;;;;;1999.90;999.90;;;;;;;;;;4987556;28;20223;-65
2023/09/24 13:16:42;;;;;;;1999.90;999.90;;;;;;;;;;4988376;28;20225;-67
2023/09/24 13:19:11;;;;;;;1999.90;999.90;;;;;;;;;;4988618;28;20260;-69
2023/09/24 13:21:39;;;;;;;1999.90;999.90;;;;;;;;;;4987898;28;20204;-66
2023/09/24 13:24:06;;;;;;;1999.90;999.90;;;;;;;;;;4988783;28;20206;-63
2023/09/24 13:26:34;;;;;;;1999.90;999.90;;;;;;;;;;4987411;28;20190;-64
2023/09/24 13:29:02;;;;;;;1999.90;999.90;;;;;;;;;;4983349;28;20651;-66
2023/09/24 13:31:30;;;;;;;1999.90;999.90;;;;;;;;;;4979970;28;20673;-62
2023/09/24 13:33:57;;;;;;;1999.90;999.90;;;;;;;;;;4963433;28;20201;-68
2023/09/24 13:36:24;;;;;;;1999.90;999.90;;;;;;;;;;4987830;28;20233;-68
2023/09/24 13:38:51;;;;;;;1999.90;999.90;;;;;;;;;;4969743;28;20204;-65
2023/09/24 13:41:19;;;;;;;1999.90;999.90;;;;;;;;;;4988081;28;20576;-66
2023/09/24 13:43:46;;;;;;;1999.90;999.90;;;;;;;;;;4987053;28;20194;-67
2023/09/24 13:46:15;;;;;;;1999.90;999.90;;;;;;;;;;4988197;28;20279;-67
2023/09/24 13:48:42;;;;;;;1999.90;999.90;;;;;;;;;;4986633;28;20259;-69
2023/09/24 13:51:09;;;;;;;1999.90;999.90;;;;;;;;;;4986419;28;20204;-70
2023/09/24 13:53:37;;;;;;;1999.90;999.90;;;;;;;;;;4988066;28;20205;-72
2023/09/24 13:56:05;;;;;;;1999.90;999.90;;;;;;;;;;4986901;28;20201;-69
2023/09/24 13:58:32;;;;;;;1999.90;999.90;;;;;;;;;;4987888;28;20208;-74